Pistol River, Oregon
Current Conditions -  °F | °C
As of 11:10 PM on Friday 28 Nov 2014 (Local Time) from KBOK Reporting Station
Heavy Rain Heavy Rain  
Wind Chill: 55°   Ceiling: 100
Heat Index: 55°   Visibility: 0.5mi
Dew Point: 55°   Wind: 8mph
Humidity: 100%   Direction: 190°S
Pressure: 29.69"   Gusts: NA
Location:  42.5771°N, 124.359°W
Report Text: KBOK 290710Z AUTO 19007KT 120V240 1/2SM +RA FG OVC001 13/13 A2969 RMK AO2 P0023
Loading
Personal Weather Stations






























Interactive Weather Map New forecast layout! Learn more

10-Day Weather Forecast

Advertisements
Track Severe Weather on mobile